createdAt,value
2023-05-25T00:03:05.014Z,100919.92
2023-05-25T00:08:09.054Z,100920.65
2023-05-25T00:13:12.809Z,100926.17
2023-05-25T00:18:16.523Z,100918.92
2023-05-25T00:23:21.763Z,100921.45
2023-05-25T00:28:25.616Z,100918.30
2023-05-25T00:33:29.655Z,100919.44
2023-05-25T00:38:33.389Z,100917.40
2023-05-25T00:43:37.240Z,100921.86
2023-05-25T00:48:41.224Z,100921.78
2023-05-25T00:53:44.988Z,100924.66
2023-05-25T00:58:51.194Z,100924.24
2023-05-25T01:03:56.846Z,100925.44
2023-05-25T01:09:04.696Z,100931.44
2023-05-25T01:14:09.595Z,100924.23
2023-05-25T01:19:13.638Z,100929.06
2023-05-25T01:24:32.781Z,100927.29
2023-05-25T01:29:38.002Z,100928.98
2023-05-25T01:34:44.264Z,100939.32
2023-05-25T01:39:48.073Z,100950.55
2023-05-25T01:44:51.930Z,100955.70
2023-05-25T01:50:14.458Z,100960.45
2023-05-25T01:55:19.851Z,100960.86
2023-05-25T02:00:25.372Z,100957.14
2023-05-25T02:05:29.358Z,100951.83
2023-05-25T02:10:33.609Z,100952.11
2023-05-25T02:15:38.095Z,100952.46
2023-05-25T02:20:41.967Z,100960.54
2023-05-25T02:25:46.851Z,100964.48
2023-05-25T02:30:50.796Z,100969.05
2023-05-25T02:35:55.766Z,100964.09
2023-05-25T02:40:59.656Z,100963.33
2023-05-25T02:46:03.612Z,100961.95
2023-05-25T02:51:07.717Z,100961.98
2023-05-25T02:56:11.835Z,100963.84
2023-05-25T03:01:19.416Z,100955.48
2023-05-25T03:06:29.004Z,100953.05
2023-05-25T03:11:35.247Z,100950.42
2023-05-25T03:16:40.450Z,100962.86
2023-05-25T03:21:44.409Z,100969.49
2023-05-25T03:26:51.703Z,100971.71
2023-05-25T03:31:55.638Z,100979.66
2023-05-25T03:37:04.078Z,100977.09
2023-05-25T03:42:08.576Z,100978.20
2023-05-25T03:47:13.898Z,100983.77
2023-05-25T03:52:17.695Z,100976.59
2023-05-25T03:57:21.711Z,100978.98
2023-05-25T04:02:25.565Z,100985.58
2023-05-25T04:07:31.463Z,100991.73
2023-05-25T04:12:36.676Z,100997.48
2023-05-25T04:17:41.520Z,100998.54
2023-05-25T04:22:45.415Z,101001.05
2023-05-25T04:27:49.612Z,101001.23
2023-05-25T04:33:04.372Z,101000.73
2023-05-25T04:38:27.454Z,101006.89
2023-05-25T04:43:31.439Z,101009.16
2023-05-25T04:48:39.516Z,101008.19
2023-05-25T04:53:43.544Z,101010.60
2023-05-25T04:58:47.501Z,101016.67
2023-05-25T05:03:51.888Z,101013.84
2023-05-25T05:08:58.099Z,101011.53
2023-05-25T05:14:01.986Z,101018.27
2023-05-25T05:19:06.564Z,101018.44
2023-05-25T05:24:11.252Z,101022.56
2023-05-25T05:29:15.047Z,101026.28
2023-05-25T05:34:21.716Z,101038.48
2023-05-25T05:39:25.661Z,101040.64
2023-05-25T05:44:32.382Z,101039.76
2023-05-25T05:49:39.646Z,101041.16
2023-05-25T05:54:43.737Z,101038.36
2023-05-25T05:59:51.003Z,101047.84
2023-05-25T06:04:55.376Z,101052.03
2023-05-25T06:10:03.932Z,101053.15
2023-05-25T06:15:16.336Z,101056.85
2023-05-25T06:20:22.777Z,101057.52
2023-05-25T06:25:27.155Z,101054.80
2023-05-25T06:30:32.145Z,101053.38
2023-05-25T06:35:36.065Z,101053.38
2023-05-25T06:40:40.078Z,101046.46
2023-05-25T06:45:44.351Z,101048.87
2023-05-25T06:50:49.141Z,101048.27
2023-05-25T06:55:53.223Z,101053.25
2023-05-25T07:00:57.085Z,101050.47
2023-05-25T07:06:00.926Z,101049.21
2023-05-25T07:11:05.150Z,101047.24
2023-05-25T07:16:08.973Z,101043.77
2023-05-25T07:21:12.735Z,101037.77
2023-05-25T07:26:17.034Z,101042.13
2023-05-25T07:31:20.913Z,101044.02
2023-05-25T07:36:25.259Z,101046.77
2023-05-25T07:41:28.926Z,101056.05
2023-05-25T07:46:32.747Z,101062.80
2023-05-25T07:51:37.036Z,101059.92
2023-05-25T07:56:40.908Z,101065.52
2023-05-25T08:01:44.704Z,101069.82
2023-05-25T08:06:48.514Z,101074.92
2023-05-25T08:11:52.382Z,101078.17
2023-05-25T08:16:59.833Z,101073.86
2023-05-25T08:22:03.798Z,101072.17
2023-05-25T08:27:07.479Z,101075.38
2023-05-25T08:32:11.454Z,101076.11
2023-05-25T08:37:15.259Z,101070.49
2023-05-25T08:42:19.129Z,101077.95
2023-05-25T08:47:23.848Z,101070.59
2023-05-25T08:52:30.050Z,101073.68
2023-05-25T08:57:42.695Z,101073.96
2023-05-25T09:03:07.584Z,101078.32
2023-05-25T09:08:11.882Z,101083.83
2023-05-25T09:18:22.990Z,101083.16
2023-05-25T09:23:26.968Z,101087.01
2023-05-25T09:28:30.705Z,101089.84
2023-05-25T09:33:36.879Z,101079.70
2023-05-25T09:38:41.706Z,101074.66
2023-05-25T09:44:02.196Z,101068.83
2023-05-25T09:49:12.590Z,101073.84
2023-05-25T09:54:16.898Z,101073.02
2023-05-25T09:59:22.573Z,101070.64
2023-05-25T10:04:26.557Z,101072.40
2023-05-25T10:09:31.009Z,101071.89
2023-05-25T10:14:37.449Z,101075.54
2023-05-25T10:19:49.616Z,101073.42
2023-05-25T10:25:12.087Z,101077.70
2023-05-25T10:30:16.812Z,101080.52
2023-05-25T10:35:21.889Z,101077.82
2023-05-25T10:40:25.710Z,101077.84
2023-05-25T10:45:31.122Z,101071.09
2023-05-25T10:50:38.051Z,101064.39
2023-05-25T10:55:49.702Z,101066.41
2023-05-25T11:01:08.683Z,101064.01
2023-05-25T11:06:17.162Z,101060.60
2023-05-25T11:11:21.388Z,101061.35
2023-05-25T11:16:29.813Z,101057.42
2023-05-25T11:21:37.130Z,101051.30
2023-05-25T11:26:56.960Z,101039.70
2023-05-25T11:32:01.538Z,101040.79
2023-05-25T11:37:05.479Z,101043.08
2023-05-25T11:42:11.764Z,101041.44
2023-05-25T11:47:19.303Z,101039.91
2023-05-25T11:52:25.412Z,101044.30
2023-05-25T11:57:29.378Z,101042.17
2023-05-25T12:02:44.002Z,101037.65
2023-05-25T12:07:48.154Z,101036.17
2023-05-25T12:12:52.588Z,101034.10
2023-05-25T12:17:57.453Z,101029.73
2023-05-25T12:23:02.183Z,101021.88
2023-05-25T12:28:12.715Z,101018.08
2023-05-25T12:33:16.668Z,101019.80
2023-05-25T12:38:24.328Z,101015.22
2023-05-25T12:43:45.787Z,101009.75
2023-05-25T12:48:49.587Z,101003.65
2023-05-25T12:53:54.647Z,101000.42
2023-05-25T12:59:16.882Z,100997.73
2023-05-25T13:04:20.776Z,100989.16
2023-05-25T13:09:29.123Z,100987.11
2023-05-25T13:14:32.969Z,100981.65
2023-05-25T13:19:37.302Z,100982.84
2023-05-25T13:24:41.440Z,100981.42
2023-05-25T13:29:45.145Z,100979.26
2023-05-25T13:34:54.413Z,100974.45
2023-05-25T13:40:01.151Z,100969.20
2023-05-25T13:45:08.710Z,100966.29
2023-05-25T13:50:12.626Z,100961.34
2023-05-25T13:55:16.574Z,100962.06
2023-05-25T14:00:20.631Z,100955.54
2023-05-25T14:05:24.793Z,100948.02
2023-05-25T14:10:28.917Z,100939.92
2023-05-25T14:15:33.080Z,100934.50
2023-05-25T14:20:38.421Z,100937.04
2023-05-25T14:25:45.577Z,100931.77
2023-05-25T14:30:50.059Z,100934.19
2023-05-25T14:35:53.837Z,100931.77
2023-05-25T14:40:57.637Z,100928.08
2023-05-25T14:46:01.510Z,100928.05
2023-05-25T14:51:06.216Z,100929.38
2023-05-25T14:56:11.291Z,100927.33
2023-05-25T15:01:15.281Z,100925.66
2023-05-25T15:06:19.024Z,100925.38
2023-05-25T15:11:22.814Z,100920.63
2023-05-25T15:16:26.653Z,100923.02
2023-05-25T15:21:30.860Z,100920.63
2023-05-25T15:26:34.914Z,100925.86
2023-05-25T15:31:38.781Z,100925.52
2023-05-25T15:36:45.630Z,100917.70
2023-05-25T15:41:56.933Z,100925.29
2023-05-25T15:47:03.943Z,100914.98
2023-05-25T15:52:08.092Z,100910.73
2023-05-25T15:57:15.448Z,100907.39
2023-05-25T16:02:20.125Z,100899.71
2023-05-25T16:07:24.064Z,100899.03
2023-05-25T16:12:28.613Z,100897.70
2023-05-25T16:17:32.569Z,100897.03
2023-05-25T16:22:36.342Z,100888.98
2023-05-25T16:27:40.214Z,100891.83
2023-05-25T16:32:43.999Z,100890.33
2023-05-25T16:37:47.789Z,100888.43
2023-05-25T16:42:51.727Z,100891.71
2023-05-25T16:47:55.462Z,100893.32
2023-05-25T16:52:59.361Z,100888.20
2023-05-25T16:58:03.433Z,100882.04
2023-05-25T17:03:07.498Z,100880.37
2023-05-25T17:08:12.577Z,100880.31
2023-05-25T17:13:18.882Z,100877.16
2023-05-25T17:18:22.774Z,100880.33
2023-05-25T17:23:27.384Z,100877.02
2023-05-25T17:28:33.221Z,100877.13
2023-05-25T17:33:36.948Z,100878.97
2023-05-25T17:38:41.653Z,100876.05
2023-05-25T17:43:46.728Z,100880.45
2023-05-25T17:48:50.806Z,100885.02
2023-05-25T17:53:54.621Z,100883.05
2023-05-25T17:58:58.392Z,100881.06
2023-05-25T18:04:02.592Z,100879.89
2023-05-25T18:09:06.413Z,100879.13
2023-05-25T18:14:10.706Z,100882.48
2023-05-25T18:19:21.552Z,100884.35
2023-05-25T18:24:28.950Z,100885.99
2023-05-25T18:29:33.075Z,100885.90
2023-05-25T18:34:37.224Z,100891.11
2023-05-25T18:39:42.505Z,100894.54
2023-05-25T18:44:46.802Z,100896.47
2023-05-25T18:49:51.977Z,100893.55
2023-05-25T18:54:56.445Z,100899.04
2023-05-25T19:00:07.882Z,100902.63
2023-05-25T19:05:11.991Z,100912.38
2023-05-25T19:10:16.288Z,100916.22
2023-05-25T19:15:20.659Z,100916.36
2023-05-25T19:20:28.638Z,100917.11
2023-05-25T19:25:32.747Z,100920.88
2023-05-25T19:30:36.940Z,100930.17
2023-05-25T19:35:42.059Z,100934.02
2023-05-25T19:40:46.548Z,100935.16
2023-05-25T19:45:50.915Z,100941.23
2023-05-25T19:50:54.938Z,100946.71
2023-05-25T19:56:00.181Z,100942.30
2023-05-25T20:01:04.316Z,100943.70
2023-05-25T20:06:08.782Z,100945.22
2023-05-25T20:11:13.481Z,100949.85
2023-05-25T20:16:17.523Z,100954.59
2023-05-25T20:21:22.466Z,100956.82
2023-05-25T20:26:26.310Z,100958.40
2023-05-25T20:31:30.139Z,100957.36
2023-05-25T20:36:33.930Z,100959.44
2023-05-25T20:41:38.343Z,100960.14
2023-05-25T20:46:42.568Z,100963.04
2023-05-25T20:51:50.558Z,100963.40
2023-05-25T20:56:55.403Z,100966.69
2023-05-25T21:01:59.612Z,100964.32
2023-05-25T21:07:03.891Z,100956.00
2023-05-25T21:12:07.955Z,100965.39
2023-05-25T21:17:12.030Z,100962.66
2023-05-25T21:22:16.604Z,100968.91
2023-05-25T21:27:20.381Z,100973.69
2023-05-25T21:32:24.371Z,100970.67
2023-05-25T21:37:28.639Z,100972.98
2023-05-25T21:42:32.461Z,100974.71
2023-05-25T21:47:36.215Z,100968.54
2023-05-25T21:52:40.384Z,100970.59
2023-05-25T21:57:44.347Z,100969.86
2023-05-25T22:02:49.280Z,100977.39
2023-05-25T22:07:54.994Z,100979.30
2023-05-25T22:12:59.412Z,100980.27
2023-05-25T22:18:03.131Z,100981.77
2023-05-25T22:23:07.628Z,100983.07
2023-05-25T22:28:11.512Z,100990.17
2023-05-25T22:33:15.242Z,100992.83
2023-05-25T22:38:18.921Z,100992.33
2023-05-25T22:43:22.434Z,100995.70
2023-05-25T22:48:26.584Z,100995.73
2023-05-25T22:53:30.271Z,100995.15
2023-05-25T22:58:33.936Z,100995.48
2023-05-25T23:03:37.590Z,100995.14
2023-05-25T23:08:41.282Z,100991.35
2023-05-25T23:13:45.562Z,100992.63
2023-05-25T23:18:49.080Z,100988.08
2023-05-25T23:23:52.556Z,100990.48
2023-05-25T23:28:56.253Z,100989.59
2023-05-25T23:34:00.592Z,100992.19
2023-05-25T23:45:58.984Z,100990.85
2023-05-25T23:51:02.823Z,100988.36
2023-05-25T23:56:06.768Z,100991.85
